createdAt,value
2018-06-21T00:00:33.180Z,90.54
2018-06-21T00:03:02.613Z,90.56
2018-06-21T00:05:31.909Z,90.23
2018-06-21T00:08:00.890Z,89.58
2018-06-21T00:10:30.045Z,89.75
2018-06-21T00:12:59.045Z,90.52
2018-06-21T00:15:28.076Z,90.17
2018-06-21T00:17:57.139Z,89.91
2018-06-21T00:20:26.234Z,90.36
2018-06-21T00:22:56.012Z,89.83
2018-06-21T00:25:25.169Z,90.24
2018-06-21T00:27:54.426Z,89.72
2018-06-21T00:30:23.468Z,89.25
2018-06-21T00:32:53.637Z,88.17
2018-06-21T00:35:23.071Z,89.06
2018-06-21T00:37:52.458Z,89.82
2018-06-21T00:40:21.840Z,89.79
2018-06-21T00:42:51.319Z,88.74
2018-06-21T00:45:20.575Z,89.84
2018-06-21T00:47:50.054Z,89.90
2018-06-21T00:50:19.686Z,90.22
2018-06-21T00:52:48.783Z,89.27
2018-06-21T00:55:27.356Z,89.29
2018-06-21T00:57:56.780Z,89.31
2018-06-21T01:00:25.727Z,89.70
2018-06-21T01:02:54.937Z,89.78
2018-06-21T01:05:24.284Z,88.76
2018-06-21T01:07:53.352Z,89.66
2018-06-21T01:10:23.040Z,89.30
2018-06-21T01:12:52.381Z,89.04
2018-06-21T01:15:21.543Z,89.38
2018-06-21T01:17:50.961Z,90.01
2018-06-21T01:20:20.659Z,89.87
2018-06-21T01:22:49.780Z,90.97
2018-06-21T01:25:19.833Z,89.20
2018-06-21T01:27:48.944Z,89.96
2018-06-21T01:30:18.013Z,90.09
2018-06-21T01:32:47.368Z,90.37
2018-06-21T01:35:16.713Z,90.87
2018-06-21T01:37:45.776Z,91.34
2018-06-21T01:40:16.139Z,91.35
2018-06-21T01:42:45.453Z,90.85
2018-06-21T01:45:14.958Z,91.82
2018-06-21T01:47:47.068Z,91.69
2018-06-21T01:50:16.583Z,91.96
2018-06-21T01:52:45.763Z,91.79
2018-06-21T01:55:14.822Z,92.19
2018-06-21T01:57:43.826Z,91.57
2018-06-21T02:00:13.281Z,91.52
2018-06-21T02:02:42.473Z,91.78
2018-06-21T02:05:11.580Z,91.26
2018-06-21T02:07:40.576Z,91.30
2018-06-21T02:10:09.856Z,92.04
2018-06-21T02:12:39.175Z,91.28
2018-06-21T02:15:08.656Z,90.59
2018-06-21T02:17:38.027Z,90.14
2018-06-21T02:20:07.633Z,90.13
2018-06-21T02:22:37.106Z,90.56
2018-06-21T02:25:06.708Z,90.83
2018-06-21T02:27:35.932Z,91.40
2018-06-21T02:30:05.615Z,92.06
2018-06-21T02:32:34.746Z,91.72
2018-06-21T02:35:03.893Z,91.92
2018-06-21T02:37:33.125Z,91.60
2018-06-21T02:40:02.520Z,90.72
2018-06-21T02:42:31.762Z,91.98
2018-06-21T02:45:01.916Z,91.93
2018-06-21T02:47:31.540Z,92.16
2018-06-21T02:50:00.789Z,91.14
2018-06-21T02:52:29.879Z,91.04
2018-06-21T02:54:59.024Z,91.00
2018-06-21T02:57:28.154Z,89.92
2018-06-21T02:59:57.457Z,89.53
2018-06-21T03:02:26.499Z,89.54
2018-06-21T03:04:55.717Z,89.41
2018-06-21T03:07:25.129Z,88.96
2018-06-21T03:09:54.429Z,89.00
2018-06-21T03:12:24.493Z,89.24
2018-06-21T03:14:54.748Z,89.44
2018-06-21T03:17:24.173Z,89.65
2018-06-21T03:19:53.435Z,90.23
2018-06-21T03:22:22.744Z,89.76
2018-06-21T03:24:51.836Z,90.01
2018-06-21T03:27:21.076Z,89.03
2018-06-21T03:29:50.093Z,89.96
2018-06-21T03:32:20.032Z,89.54
2018-06-21T03:34:49.779Z,89.17
2018-06-21T03:37:18.873Z,88.72
2018-06-21T03:39:47.918Z,88.73
2018-06-21T03:42:17.003Z,88.73
2018-06-21T03:44:46.029Z,88.63
2018-06-21T03:47:15.348Z,88.74
2018-06-21T03:49:44.351Z,88.98
2018-06-21T03:52:13.479Z,89.08
2018-06-21T03:54:42.899Z,88.39
2018-06-21T03:57:12.196Z,88.26
2018-06-21T03:59:41.570Z,86.67
2018-06-21T04:02:10.706Z,86.63
2018-06-21T04:04:39.704Z,87.30
2018-06-21T04:07:08.681Z,87.82
2018-06-21T04:09:37.720Z,88.08
2018-06-21T04:12:06.712Z,87.38
2018-06-21T04:14:35.863Z,87.37
2018-06-21T04:17:04.911Z,86.78
2018-06-21T04:19:33.891Z,86.98
2018-06-21T04:22:03.126Z,87.63
2018-06-21T04:24:32.119Z,87.38
2018-06-21T04:27:01.529Z,85.86
2018-06-21T04:29:30.729Z,84.14
2018-06-21T04:31:59.688Z,84.52
2018-06-21T04:34:28.865Z,84.05
2018-06-21T04:36:57.950Z,82.50
2018-06-21T04:39:27.504Z,81.30
2018-06-21T04:41:56.681Z,81.61
2018-06-21T04:44:26.151Z,80.89
2018-06-21T04:46:55.181Z,80.55
2018-06-21T04:49:24.380Z,79.27
2018-06-21T04:51:53.365Z,78.74
2018-06-21T04:54:22.355Z,77.45
2018-06-21T04:56:51.369Z,78.14
2018-06-21T04:59:20.516Z,77.46
2018-06-21T05:01:50.817Z,76.80
2018-06-21T05:04:19.940Z,77.30
2018-06-21T05:06:48.933Z,78.13
2018-06-21T05:09:17.907Z,77.65
2018-06-21T05:11:46.935Z,77.56
2018-06-21T05:14:15.952Z,76.75
2018-06-21T05:16:45.076Z,77.01
2018-06-21T05:19:14.145Z,77.54
2018-06-21T05:21:43.215Z,77.32
2018-06-21T05:24:12.480Z,76.02
2018-06-21T05:26:41.579Z,75.49
2018-06-21T05:29:11.977Z,76.26
2018-06-21T05:31:41.040Z,75.99
2018-06-21T05:34:10.057Z,73.28
2018-06-21T05:36:39.997Z,73.34
2018-06-21T05:39:11.171Z,72.65
2018-06-21T05:41:40.276Z,72.19
2018-06-21T05:44:09.683Z,70.79
2018-06-21T05:46:38.729Z,70.64
2018-06-21T05:49:07.788Z,70.50
2018-06-21T05:51:36.820Z,70.61
2018-06-21T05:54:05.941Z,70.01
2018-06-21T05:56:34.912Z,69.69
2018-06-21T05:59:03.948Z,69.70
2018-06-21T06:01:33.105Z,68.57
2018-06-21T06:04:02.075Z,68.14
2018-06-21T06:06:31.057Z,67.70
2018-06-21T06:09:00.085Z,67.37
2018-06-21T06:11:29.196Z,67.49
2018-06-21T06:13:58.191Z,67.74
2018-06-21T06:16:27.281Z,66.94
2018-06-21T06:18:56.265Z,64.92
2018-06-21T06:21:25.257Z,65.97
2018-06-21T06:23:54.439Z,66.19
2018-06-21T06:26:23.493Z,64.51
2018-06-21T06:28:52.760Z,65.32
2018-06-21T06:31:21.768Z,64.87
2018-06-21T06:33:51.162Z,64.77
2018-06-21T06:36:20.244Z,64.60
2018-06-21T06:38:49.320Z,63.69
2018-06-21T06:41:18.360Z,63.37
2018-06-21T06:43:47.383Z,63.24
2018-06-21T06:46:16.389Z,62.54
2018-06-21T06:48:46.340Z,62.62
2018-06-21T06:51:15.340Z,62.69
2018-06-21T06:53:44.395Z,61.88
2018-06-21T06:56:13.434Z,61.94
2018-06-21T06:58:42.495Z,63.03
2018-06-21T07:01:11.528Z,61.41
2018-06-21T07:03:40.495Z,63.36
2018-06-21T07:06:09.600Z,62.98
2018-06-21T07:08:38.772Z,61.94
2018-06-21T07:11:07.796Z,61.39
2018-06-21T07:13:36.751Z,61.27
2018-06-21T07:16:05.801Z,62.10
2018-06-21T07:18:34.823Z,61.85
2018-06-21T07:21:03.813Z,61.05
2018-06-21T07:23:32.770Z,60.61
2018-06-21T07:26:01.825Z,60.04
2018-06-21T07:28:30.853Z,58.53
2018-06-21T07:30:59.789Z,59.34
2018-06-21T07:33:28.871Z,60.63
2018-06-21T07:35:57.884Z,59.45
2018-06-21T07:38:27.032Z,60.41
2018-06-21T07:40:56.210Z,59.07
2018-06-21T07:43:25.254Z,59.91
2018-06-21T07:45:54.228Z,59.13
2018-06-21T07:48:23.233Z,57.74
2018-06-21T07:50:52.269Z,57.61
2018-06-21T07:53:21.344Z,58.44
2018-06-21T07:55:50.357Z,57.58
2018-06-21T07:58:19.824Z,57.18
2018-06-21T08:00:48.980Z,56.51
2018-06-21T08:03:17.957Z,55.82
2018-06-21T08:05:46.972Z,52.84
2018-06-21T08:08:16.033Z,55.69
2018-06-21T08:10:45.142Z,51.93
2018-06-21T08:13:14.376Z,55.28
2018-06-21T08:15:43.449Z,51.79
2018-06-21T08:18:12.451Z,51.40
2018-06-21T08:20:41.408Z,50.37
2018-06-21T08:23:10.532Z,48.80
2018-06-21T08:25:39.580Z,48.97
2018-06-21T08:28:08.847Z,48.59
2018-06-21T08:30:38.247Z,51.86
2018-06-21T08:33:07.300Z,45.45
2018-06-21T08:35:36.336Z,46.44
2018-06-21T08:38:05.402Z,45.56
2018-06-21T08:40:34.355Z,44.14
2018-06-21T08:43:03.379Z,43.35
2018-06-21T08:45:32.328Z,44.09
2018-06-21T08:48:01.382Z,45.45
2018-06-21T08:50:30.409Z,48.11
2018-06-21T08:52:59.378Z,48.17
2018-06-21T08:55:28.395Z,47.77
2018-06-21T08:57:57.425Z,47.42
2018-06-21T09:00:26.496Z,47.30
2018-06-21T09:02:55.488Z,47.83
2018-06-21T09:05:24.517Z,48.40
2018-06-21T09:07:53.584Z,49.45
2018-06-21T09:10:22.574Z,48.40
2018-06-21T09:12:51.552Z,48.39
2018-06-21T09:15:20.680Z,49.60
2018-06-21T09:17:49.764Z,47.58
2018-06-21T09:20:18.823Z,48.89
2018-06-21T09:22:47.791Z,49.02
2018-06-21T09:25:16.760Z,48.50
2018-06-21T09:27:45.754Z,47.13
2018-06-21T09:30:14.708Z,49.04
2018-06-21T09:32:43.720Z,47.33
2018-06-21T09:35:12.778Z,48.96
2018-06-21T09:37:46.718Z,48.75
2018-06-21T09:40:20.876Z,46.73
2018-06-21T09:42:54.940Z,47.06
2018-06-21T09:45:29.052Z,45.37
2018-06-21T09:48:02.990Z,41.88
2018-06-21T09:50:32.008Z,40.49
2018-06-21T09:53:01.103Z,44.49
2018-06-21T09:55:30.069Z,42.75
2018-06-21T09:57:59.105Z,43.09
2018-06-21T10:00:33.061Z,40.97
2018-06-21T10:03:02.047Z,43.56
2018-06-21T10:05:31.028Z,38.28
2018-06-21T10:07:59.993Z,40.57
2018-06-21T10:10:28.980Z,38.75
2018-06-21T10:12:58.304Z,39.63
2018-06-21T10:15:27.292Z,39.63
2018-06-21T10:17:59.580Z,40.19
2018-06-21T10:20:28.672Z,39.33
2018-06-21T10:22:57.706Z,40.38
2018-06-21T10:25:26.784Z,40.33
2018-06-21T10:27:55.774Z,39.53
2018-06-21T10:30:24.754Z,36.87
2018-06-21T10:32:54.065Z,36.48
2018-06-21T10:35:23.101Z,39.77
2018-06-21T10:37:52.054Z,38.59
2018-06-21T10:40:21.085Z,35.00
2018-06-21T10:42:50.034Z,35.93
2018-06-21T10:45:19.051Z,35.46
2018-06-21T10:47:48.331Z,35.89
2018-06-21T10:50:17.316Z,37.41
2018-06-21T10:52:46.332Z,38.41
2018-06-21T10:55:15.412Z,36.50
2018-06-21T10:57:44.363Z,36.45
2018-06-21T11:00:13.353Z,35.73
2018-06-21T11:02:42.373Z,35.46
2018-06-21T11:05:12.228Z,33.56
2018-06-21T11:07:41.394Z,34.01
2018-06-21T11:10:10.437Z,34.87
2018-06-21T11:12:39.456Z,32.74
2018-06-21T11:15:08.428Z,33.75
2018-06-21T11:17:37.434Z,35.40
2018-06-21T11:20:06.411Z,35.49
2018-06-21T11:22:35.368Z,33.60
2018-06-21T11:25:04.433Z,32.77
2018-06-21T11:27:33.419Z,33.01
2018-06-21T11:30:02.398Z,33.32
2018-06-21T11:32:31.412Z,33.28
2018-06-21T11:35:00.382Z,32.82
2018-06-21T11:37:29.412Z,33.68
2018-06-21T11:39:58.505Z,33.54
2018-06-21T11:42:27.525Z,31.55
2018-06-21T11:44:56.613Z,30.93
2018-06-21T11:47:25.628Z,32.91
2018-06-21T11:49:54.656Z,33.08
2018-06-21T11:52:23.738Z,33.80
2018-06-21T11:54:52.692Z,32.35
2018-06-21T11:57:21.669Z,30.38
2018-06-21T11:59:50.692Z,30.01
2018-06-21T12:02:19.798Z,30.09
2018-06-21T12:04:48.780Z,30.07
2018-06-21T12:07:17.796Z,29.91
2018-06-21T12:09:46.869Z,28.29
2018-06-21T12:12:15.824Z,28.05
2018-06-21T12:14:44.795Z,26.07
2018-06-21T12:17:13.920Z,26.80
2018-06-21T12:19:43.048Z,27.40
2018-06-21T12:22:12.077Z,25.16
2018-06-21T12:24:41.350Z,25.20
2018-06-21T12:27:10.339Z,25.36
2018-06-21T12:29:40.952Z,25.91
2018-06-21T12:32:17.850Z,27.21
2018-06-21T12:34:46.829Z,27.73
2018-06-21T12:37:16.138Z,23.96
2018-06-21T12:39:45.172Z,25.81
2018-06-21T12:42:14.216Z,24.74
2018-06-21T12:44:43.269Z,24.74
2018-06-21T12:47:12.267Z,23.85
2018-06-21T12:49:41.352Z,25.66
2018-06-21T12:52:10.403Z,24.28
2018-06-21T12:54:39.396Z,23.99
2018-06-21T12:57:08.425Z,24.67
2018-06-21T12:59:37.415Z,27.94
2018-06-21T13:02:06.473Z,24.60
2018-06-21T13:04:35.436Z,25.29
2018-06-21T13:07:04.491Z,24.37
2018-06-21T13:10:45.716Z,25.71
2018-06-21T13:13:21.769Z,27.23
2018-06-21T13:15:50.804Z,27.20
2018-06-21T13:18:19.787Z,27.44
2018-06-21T13:20:48.921Z,25.68
2018-06-21T13:23:17.901Z,28.37
2018-06-21T13:25:46.956Z,26.37
2018-06-21T13:28:16.000Z,26.74
2018-06-21T13:30:44.957Z,27.69
2018-06-21T13:33:13.960Z,27.28
2018-06-21T13:35:42.912Z,26.90
2018-06-21T13:38:11.974Z,29.11
2018-06-21T13:40:40.964Z,29.19
2018-06-21T13:43:10.388Z,29.75
2018-06-21T13:45:39.500Z,29.45
2018-06-21T13:48:08.484Z,29.33
2018-06-21T13:50:37.452Z,34.00
2018-06-21T13:53:06.476Z,42.13
2018-06-21T13:55:35.445Z,42.80
2018-06-21T13:58:05.131Z,44.75
2018-06-21T14:00:35.373Z,46.24
2018-06-21T14:03:04.548Z,45.96
2018-06-21T14:05:33.616Z,47.88
2018-06-21T14:08:02.857Z,47.81
2018-06-21T14:10:31.668Z,46.95
2018-06-21T14:13:00.762Z,46.83
2018-06-21T14:15:29.873Z,46.37
2018-06-21T14:17:58.841Z,46.60
2018-06-21T14:20:27.826Z,45.86
2018-06-21T14:22:56.865Z,45.88
2018-06-21T14:25:25.904Z,44.89
2018-06-21T14:27:54.879Z,44.02
2018-06-21T14:30:23.887Z,43.57
2018-06-21T14:32:52.896Z,43.69
2018-06-21T14:35:21.912Z,44.28
2018-06-21T14:37:50.868Z,44.34
2018-06-21T14:40:19.910Z,44.63
2018-06-21T14:42:48.955Z,44.76
2018-06-21T14:45:18.093Z,42.82
2018-06-21T14:47:47.233Z,44.43
2018-06-21T14:50:16.221Z,43.11
2018-06-21T14:52:47.688Z,43.13
2018-06-21T14:55:16.655Z,43.16
2018-06-21T14:57:45.776Z,44.71
2018-06-21T15:00:14.753Z,44.23
2018-06-21T15:02:43.755Z,44.46
2018-06-21T15:05:12.715Z,41.48
2018-06-21T15:07:41.776Z,41.69
2018-06-21T15:10:10.733Z,41.91
2018-06-21T15:12:39.788Z,41.56
2018-06-21T15:15:08.760Z,42.05
2018-06-21T15:17:37.812Z,41.02
2018-06-21T15:20:06.837Z,40.03
2018-06-21T15:22:35.875Z,39.99
2018-06-21T15:25:04.961Z,40.63
2018-06-21T15:27:34.010Z,40.32
2018-06-21T15:30:02.977Z,41.00
2018-06-21T15:32:31.944Z,39.94
2018-06-21T15:35:00.905Z,40.15
2018-06-21T15:37:29.985Z,39.38
2018-06-21T15:39:59.063Z,39.05
2018-06-21T15:42:28.143Z,38.60
2018-06-21T15:44:57.140Z,38.78
2018-06-21T15:47:26.172Z,41.13
2018-06-21T15:49:55.289Z,40.97
2018-06-21T15:52:24.352Z,40.71
2018-06-21T15:54:53.474Z,38.62
2018-06-21T15:57:22.593Z,38.68
2018-06-21T15:59:51.571Z,40.04
2018-06-21T16:02:20.525Z,40.25
2018-06-21T16:04:49.559Z,41.67
2018-06-21T16:07:18.628Z,43.68
2018-06-21T16:09:47.659Z,42.39
2018-06-21T16:12:16.671Z,42.15
2018-06-21T16:14:45.740Z,42.76
2018-06-21T16:17:14.756Z,42.89
2018-06-21T16:19:43.841Z,44.27
2018-06-21T16:22:12.858Z,43.97
2018-06-21T16:24:41.997Z,44.55
2018-06-21T16:27:11.028Z,44.24
2018-06-21T16:29:40.011Z,45.49
2018-06-21T16:32:08.968Z,46.03
2018-06-21T16:34:38.005Z,45.33
2018-06-21T16:37:07.020Z,47.47
2018-06-21T16:39:36.274Z,46.92
2018-06-21T16:42:05.320Z,46.99
2018-06-21T16:44:34.292Z,47.15
2018-06-21T16:47:03.294Z,48.14
2018-06-21T16:49:32.283Z,48.57
2018-06-21T16:52:01.236Z,48.33
2018-06-21T16:54:30.208Z,49.83
2018-06-21T16:56:59.239Z,50.59
2018-06-21T16:59:28.212Z,50.23
2018-06-21T17:01:57.193Z,50.81
2018-06-21T17:04:26.177Z,50.37
2018-06-21T17:06:55.238Z,51.31
2018-06-21T17:09:24.239Z,53.14
2018-06-21T17:11:53.284Z,54.75
2018-06-21T17:14:22.333Z,53.79
2018-06-21T17:16:51.378Z,54.98
2018-06-21T17:19:20.667Z,56.01
2018-06-21T17:21:49.928Z,56.91
2018-06-21T17:24:19.124Z,58.74
2018-06-21T17:26:48.389Z,59.13
2018-06-21T17:29:17.737Z,59.89
2018-06-21T17:31:47.046Z,59.83
2018-06-21T17:34:16.420Z,60.24
2018-06-21T17:36:45.574Z,59.96
2018-06-21T17:39:14.722Z,60.78
2018-06-21T17:41:43.980Z,61.04
2018-06-21T17:44:13.211Z,60.64
2018-06-21T17:46:42.368Z,61.31
2018-06-21T17:49:11.658Z,62.59
2018-06-21T17:51:41.025Z,62.79
2018-06-21T17:54:10.516Z,62.33
2018-06-21T17:56:40.113Z,62.50
2018-06-21T17:59:09.309Z,63.66
2018-06-21T18:01:38.884Z,63.93
2018-06-21T18:04:08.192Z,64.34
2018-06-21T18:06:37.355Z,64.52
2018-06-21T18:09:08.613Z,64.66
2018-06-21T18:11:37.834Z,64.95
2018-06-21T18:14:07.169Z,66.18
2018-06-21T18:16:36.531Z,65.81
2018-06-21T18:19:05.743Z,66.73
2018-06-21T18:21:35.030Z,67.26
2018-06-21T18:24:04.247Z,67.34
2018-06-21T18:26:33.400Z,66.42
2018-06-21T18:29:02.879Z,66.74
2018-06-21T18:31:32.075Z,67.30
2018-06-21T18:34:01.281Z,68.22
2018-06-21T18:36:30.524Z,68.22
2018-06-21T18:38:59.925Z,68.21
2018-06-21T18:41:29.368Z,69.89
2018-06-21T18:43:58.475Z,69.31
2018-06-21T18:46:27.719Z,69.77
2018-06-21T18:48:57.027Z,70.67
2018-06-21T18:51:26.271Z,71.02
2018-06-21T18:53:55.480Z,70.99
2018-06-21T18:56:24.812Z,71.81
2018-06-21T18:58:54.181Z,71.36
2018-06-21T19:01:23.340Z,72.30
2018-06-21T19:03:52.725Z,71.33
2018-06-21T19:06:26.824Z,71.93
2018-06-21T19:10:00.284Z,72.67
2018-06-21T19:12:29.591Z,73.26
2018-06-21T19:14:58.900Z,74.13
2018-06-21T19:17:28.237Z,74.76
2018-06-21T19:19:57.566Z,74.28
2018-06-21T19:22:26.888Z,74.61
2018-06-21T19:24:56.037Z,74.81
2018-06-21T19:27:25.271Z,74.25
2018-06-21T19:29:54.448Z,74.58
2018-06-21T19:32:23.692Z,74.19
2018-06-21T19:34:52.997Z,74.62
2018-06-21T19:37:22.240Z,75.32
2018-06-21T19:39:51.450Z,75.01
2018-06-21T19:42:20.688Z,75.21
2018-06-21T19:44:50.047Z,75.54
2018-06-21T19:47:19.397Z,76.18
2018-06-21T19:49:55.069Z,75.63
2018-06-21T19:52:24.387Z,75.51
2018-06-21T19:54:53.412Z,76.16
2018-06-21T19:57:22.920Z,75.95
2018-06-21T19:59:52.165Z,76.83
2018-06-21T20:02:21.512Z,76.05
2018-06-21T20:04:50.762Z,76.77
2018-06-21T20:07:20.043Z,76.08
2018-06-21T20:09:49.256Z,76.87
2018-06-21T20:12:18.224Z,77.92
2018-06-21T20:14:47.504Z,78.34
2018-06-21T20:17:16.749Z,78.38
2018-06-21T20:19:50.964Z,78.51
2018-06-21T20:22:20.270Z,78.58
2018-06-21T20:24:49.580Z,78.38
2018-06-21T20:27:18.908Z,79.46
2018-06-21T20:29:49.589Z,79.03
2018-06-21T20:32:19.632Z,80.10
2018-06-21T20:34:48.788Z,79.93
2018-06-21T20:37:18.205Z,79.97
2018-06-21T20:39:47.633Z,80.06
2018-06-21T20:42:16.873Z,79.40
2018-06-21T20:44:46.159Z,79.83
2018-06-21T20:47:15.418Z,80.33
2018-06-21T20:49:44.825Z,80.99
2018-06-21T20:52:19.087Z,80.97
2018-06-21T20:54:48.438Z,80.46
2018-06-21T20:57:18.068Z,81.03
2018-06-21T20:59:47.476Z,80.29
2018-06-21T21:02:16.937Z,80.29
2018-06-21T21:05:12.900Z,79.96
2018-06-21T21:07:42.463Z,81.13
2018-06-21T21:10:14.936Z,81.22
2018-06-21T21:12:44.452Z,81.01
2018-06-21T21:15:14.337Z,80.59
2018-06-21T21:17:43.794Z,81.01
2018-06-21T21:20:13.314Z,80.37
2018-06-21T21:22:42.926Z,81.02
2018-06-21T21:25:12.206Z,82.24
2018-06-21T21:27:42.047Z,82.16
2018-06-21T21:30:12.335Z,82.13
2018-06-21T21:32:41.608Z,82.83
2018-06-21T21:35:10.847Z,83.71
2018-06-21T21:37:40.204Z,82.94
2018-06-21T21:40:09.508Z,81.88
2018-06-21T21:42:39.207Z,81.61
2018-06-21T21:45:08.748Z,82.72
2018-06-21T21:47:38.204Z,82.55
2018-06-21T21:50:07.589Z,83.20
2018-06-21T21:52:36.868Z,83.14
2018-06-21T21:55:06.184Z,83.26
2018-06-21T21:57:35.556Z,84.33
2018-06-21T22:00:05.525Z,84.54
2018-06-21T22:02:34.901Z,84.05
2018-06-21T22:05:04.123Z,83.71
2018-06-21T22:07:33.524Z,84.39
2018-06-21T22:10:02.768Z,84.84
2018-06-21T22:12:31.926Z,84.41
2018-06-21T22:15:01.157Z,84.65
2018-06-21T22:17:30.509Z,84.32
2018-06-21T22:19:59.765Z,84.97
2018-06-21T22:22:29.001Z,84.76
2018-06-21T22:24:58.208Z,85.99
2018-06-21T22:27:27.451Z,87.04
2018-06-21T22:29:56.528Z,86.49
2018-06-21T22:32:25.796Z,87.06
2018-06-21T22:34:55.005Z,87.90
2018-06-21T22:37:24.308Z,87.62
2018-06-21T22:39:53.623Z,88.25
2018-06-21T22:42:22.868Z,87.86
2018-06-21T22:44:52.163Z,87.73
2018-06-21T22:47:21.332Z,88.41
2018-06-21T22:49:50.544Z,87.28
2018-06-21T22:52:19.783Z,87.68
2018-06-21T22:54:48.999Z,88.24
2018-06-21T22:57:18.020Z,88.12
2018-06-21T22:59:47.422Z,87.15
2018-06-21T23:02:17.208Z,86.83
2018-06-21T23:04:46.475Z,86.39
2018-06-21T23:07:15.805Z,86.79
2018-06-21T23:09:45.206Z,86.38
2018-06-21T23:12:14.557Z,86.50
2018-06-21T23:14:43.958Z,86.24
2018-06-21T23:17:13.209Z,86.24
2018-06-21T23:19:42.539Z,85.97
2018-06-21T23:22:11.756Z,85.37
2018-06-21T23:24:40.994Z,85.90
2018-06-21T23:27:10.261Z,85.87
2018-06-21T23:29:39.692Z,86.15
2018-06-21T23:32:09.004Z,85.57
2018-06-21T23:34:37.980Z,85.95
2018-06-21T23:37:07.196Z,87.26
2018-06-21T23:39:36.559Z,87.42
2018-06-21T23:42:05.529Z,88.54
2018-06-21T23:44:34.481Z,89.39
2018-06-21T23:47:03.576Z,88.45
2018-06-21T23:49:32.589Z,88.78
2018-06-21T23:52:01.641Z,88.51
2018-06-21T23:54:30.659Z,87.53
2018-06-21T23:56:59.627Z,87.04
2018-06-21T23:59:28.869Z,85.80
